Windsor, ME (04363)

11:34 PM EST on February 28, 2015 (GMT -0500)
Country road in Coopers Mills Maine weather station on tower at 30 feet | Change Station
CLOSE
Current Station
Personal Weather Station
Location: Whitefield, ME
Elevation: 184 ft
Nearby Weather Stations

Elev 184 ft 44.26 °N, 69.56 °W | Updated 57 seconds ago

Clear
Clear
-2.2 °F
Feels Like -2 °F
N
0.0
Wind Variable Wind from NNW

Today
High -- | Low -- °F
--% Chance of Precip.
Yesterday
High -- | Low -- °F
Precip. -- in
6:17 AM 5:24 PM
Waxing Gibbous, 82% visible
Pressure 30.66 in
Visibility 10.0 miles
Clouds Clear
Windchill -2 °F
Dew Point -6 °F
Humidity 84%
Rainfall 0.00 in
Snow Depth Not available.
UV 0 out of 12
Pollen .10 out of 12
Air Quality Not available.
Flu Activity Not available.
METAR KAUG 010353Z AUTO 17003KT 10SM CLR M09/M13 A3064 RMK AO2 SLP383 T10891133

More Conditions Fewer Conditions

Pressure 30.66 in
Visibility 10.0 miles
Clouds Clear
Windchill -2 °F
Dew Point -6 °F
Humidity 84%
Rainfall 0.00 in
Snow Depth Not available.
UV 0 out of 12
Pollen .10 out of 12
Air Quality Not available.
Flu Activity Not available.
METAR KAUG 010353Z AUTO 17003KT 10SM CLR M09/M13 A3064 RMK AO2 SLP383 T10891133

More Conditions Fewer Conditions

10-Day Weather Forecast

Almanac

Astronomy

Feb. 28, 2015 Rise Set
Actual Time
Civil Twilight
Nautical Twilight
Astronomical Twilight
Moon
Length of Visible Light
Length of Day
Tomorrow will be .
, % of the Moon is Illuminated

Today's Extremes

State Highs State Lows

Community

WunderPhotos

Upload Photos

1,801,318 photos uploaded!

WunderBlogs® & News

Nearby

Air Quality

  Air Quality AQ Index Pollutant
Not available.

Snow Depth

Station Depth Elevation

Earthquake Activity

City Distance Mag. Time & Date
Minimum magnitude displayed is 2.5.

Coastal Water Temperatures

Place Temperature

Nearby Weather Stations